sensor_id;sensor_type;location;lat;lon;timestamp;temperature;humidity
23335;DHT22;11839;48.598;8.870;2023-03-12T00:01:12;2.40;98.20
23335;DHT22;11839;48.598;8.870;2023-03-12T00:03:39;2.30;98.30
23335;DHT22;11839;48.598;8.870;2023-03-12T00:06:06;2.20;98.30
23335;DHT22;11839;48.598;8.870;2023-03-12T00:08:34;2.40;98.00
23335;DHT22;11839;48.598;8.870;2023-03-12T00:11:05;2.40;98.10
23335;DHT22;11839;48.598;8.870;2023-03-12T00:13:32;2.40;98.20
23335;DHT22;11839;48.598;8.870;2023-03-12T00:16:03;2.60;98.10
23335;DHT22;11839;48.598;8.870;2023-03-12T00:18:30;2.60;97.60
23335;DHT22;11839;48.598;8.870;2023-03-12T00:20:57;2.30;98.00
23335;DHT22;11839;48.598;8.870;2023-03-12T00:23:23;2.20;98.60
23335;DHT22;11839;48.598;8.870;2023-03-12T00:25:52;2.60;98.60
23335;DHT22;11839;48.598;8.870;2023-03-12T00:28:18;2.70;98.20
23335;DHT22;11839;48.598;8.870;2023-03-12T00:30:45;2.50;97.80
23335;DHT22;11839;48.598;8.870;2023-03-12T00:33:12;2.40;98.30
23335;DHT22;11839;48.598;8.870;2023-03-12T00:35:39;2.50;98.30
23335;DHT22;11839;48.598;8.870;2023-03-12T00:38:05;2.40;98.40
23335;DHT22;11839;48.598;8.870;2023-03-12T00:40:32;2.40;98.20
23335;DHT22;11839;48.598;8.870;2023-03-12T00:43:00;2.30;98.20
23335;DHT22;11839;48.598;8.870;2023-03-12T00:45:27;1.90;99.00
23335;DHT22;11839;48.598;8.870;2023-03-12T00:47:54;1.90;99.40
23335;DHT22;11839;48.598;8.870;2023-03-12T00:50:21;1.90;98.90
23335;DHT22;11839;48.598;8.870;2023-03-12T00:52:47;2.10;99.60
23335;DHT22;11839;48.598;8.870;2023-03-12T00:55:14;2.40;99.30
23335;DHT22;11839;48.598;8.870;2023-03-12T00:57:41;2.20;98.90
23335;DHT22;11839;48.598;8.870;2023-03-12T01:00:11;2.40;99.40
23335;DHT22;11839;48.598;8.870;2023-03-12T01:02:39;2.60;98.90
23335;DHT22;11839;48.598;8.870;2023-03-12T01:05:07;2.50;99.30
23335;DHT22;11839;48.598;8.870;2023-03-12T01:08:02;2.60;99.20
23335;DHT22;11839;48.598;8.870;2023-03-12T01:10:29;2.50;98.90
23335;DHT22;11839;48.598;8.870;2023-03-12T01:12:57;2.50;99.00
23335;DHT22;11839;48.598;8.870;2023-03-12T01:15:25;2.50;99.20
23335;DHT22;11839;48.598;8.870;2023-03-12T01:17:52;2.30;99.20
23335;DHT22;11839;48.598;8.870;2023-03-12T01:20:19;2.60;99.50
23335;DHT22;11839;48.598;8.870;2023-03-12T01:22:47;2.50;99.60
23335;DHT22;11839;48.598;8.870;2023-03-12T01:25:14;2.40;99.80
23335;DHT22;11839;48.598;8.870;2023-03-12T01:27:41;2.30;99.40
23335;DHT22;11839;48.598;8.870;2023-03-12T01:30:08;2.60;99.60
23335;DHT22;11839;48.598;8.870;2023-03-12T01:32:37;2.60;99.30
23335;DHT22;11839;48.598;8.870;2023-03-12T01:35:04;2.90;99.10
23335;DHT22;11839;48.598;8.870;2023-03-12T01:37:32;2.80;98.70
23335;DHT22;11839;48.598;8.870;2023-03-12T01:39:59;2.70;98.70
23335;DHT22;11839;48.598;8.870;2023-03-12T01:42:26;2.80;98.80
23335;DHT22;11839;48.598;8.870;2023-03-12T01:44:54;2.50;98.80
23335;DHT22;11839;48.598;8.870;2023-03-12T01:47:22;2.50;99.40
23335;DHT22;11839;48.598;8.870;2023-03-12T01:49:51;2.90;99.40
23335;DHT22;11839;48.598;8.870;2023-03-12T01:52:21;2.90;99.70
23335;DHT22;11839;48.598;8.870;2023-03-12T01:54:52;2.70;99.80
23335;DHT22;11839;48.598;8.870;2023-03-12T01:57:22;2.80;99.40
23335;DHT22;11839;48.598;8.870;2023-03-12T01:59:54;2.60;99.40
23335;DHT22;11839;48.598;8.870;2023-03-12T02:02:23;2.40;99.50
23335;DHT22;11839;48.598;8.870;2023-03-12T02:04:59;2.30;99.90
23335;DHT22;11839;48.598;8.870;2023-03-12T02:07:28;2.00;99.90
23335;DHT22;11839;48.598;8.870;2023-03-12T02:09:56;2.00;99.90
23335;DHT22;11839;48.598;8.870;2023-03-12T02:12:22;2.10;99.90
23335;DHT22;11839;48.598;8.870;2023-03-12T02:14:49;2.30;99.90
23335;DHT22;11839;48.598;8.870;2023-03-12T02:17:16;2.40;99.90
23335;DHT22;11839;48.598;8.870;2023-03-12T02:19:49;2.40;99.90
23335;DHT22;11839;48.598;8.870;2023-03-12T02:22:19;2.50;99.90
23335;DHT22;11839;48.598;8.870;2023-03-12T02:24:50;2.10;99.90
23335;DHT22;11839;48.598;8.870;2023-03-12T02:27:20;2.00;99.90
23335;DHT22;11839;48.598;8.870;2023-03-12T02:29:47;2.10;99.90
23335;DHT22;11839;48.598;8.870;2023-03-12T02:32:19;2.40;99.90
23335;DHT22;11839;48.598;8.870;2023-03-12T02:34:46;2.50;99.90
23335;DHT22;11839;48.598;8.870;2023-03-12T02:37:15;2.60;99.90
23335;DHT22;11839;48.598;8.870;2023-03-12T02:39:44;2.90;99.90
23335;DHT22;11839;48.598;8.870;2023-03-12T02:42:12;2.60;99.90
23335;DHT22;11839;48.598;8.870;2023-03-12T02:44:41;2.20;99.90
23335;DHT22;11839;48.598;8.870;2023-03-12T02:47:08;2.20;99.90
23335;DHT22;11839;48.598;8.870;2023-03-12T02:49:35;2.10;99.90
23335;DHT22;11839;48.598;8.870;2023-03-12T02:52:02;2.40;99.90
23335;DHT22;11839;48.598;8.870;2023-03-12T02:54:29;2.20;99.90
23335;DHT22;11839;48.598;8.870;2023-03-12T02:56:56;2.00;99.90
23335;DHT22;11839;48.598;8.870;2023-03-12T02:59:24;1.90;99.90
23335;DHT22;11839;48.598;8.870;2023-03-12T03:01:54;2.00;99.90
23335;DHT22;11839;48.598;8.870;2023-03-12T03:04:21;2.00;99.90
23335;DHT22;11839;48.598;8.870;2023-03-12T03:06:48;1.90;99.90
23335;DHT22;11839;48.598;8.870;2023-03-12T03:09:16;1.90;99.90
23335;DHT22;11839;48.598;8.870;2023-03-12T03:11:43;1.70;99.90
23335;DHT22;11839;48.598;8.870;2023-03-12T03:14:10;1.90;99.90
23335;DHT22;11839;48.598;8.870;2023-03-12T03:16:37;2.00;99.90
23335;DHT22;11839;48.598;8.870;2023-03-12T03:19:05;2.10;99.90
23335;DHT22;11839;48.598;8.870;2023-03-12T03:21:32;1.90;99.90
23335;DHT22;11839;48.598;8.870;2023-03-12T03:23:59;2.10;99.90
23335;DHT22;11839;48.598;8.870;2023-03-12T03:26:26;2.30;99.90
23335;DHT22;11839;48.598;8.870;2023-03-12T03:28:53;2.40;99.90
23335;DHT22;11839;48.598;8.870;2023-03-12T03:31:20;2.30;99.90
23335;DHT22;11839;48.598;8.870;2023-03-12T03:33:47;2.20;99.90
23335;DHT22;11839;48.598;8.870;2023-03-12T03:36:16;2.30;99.90
23335;DHT22;11839;48.598;8.870;2023-03-12T03:38:43;2.20;99.90
23335;DHT22;11839;48.598;8.870;2023-03-12T03:41:14;2.10;99.90
23335;DHT22;11839;48.598;8.870;2023-03-12T03:43:41;2.30;99.90
23335;DHT22;11839;48.598;8.870;2023-03-12T03:46:10;2.60;99.90
23335;DHT22;11839;48.598;8.870;2023-03-12T03:48:37;2.70;99.90
23335;DHT22;11839;48.598;8.870;2023-03-12T03:51:05;2.70;99.90
23335;DHT22;11839;48.598;8.870;2023-03-12T03:53:34;2.50;99.90
23335;DHT22;11839;48.598;8.870;2023-03-12T03:56:04;2.60;99.90
23335;DHT22;11839;48.598;8.870;2023-03-12T03:58:31;3.10;99.90
23335;DHT22;11839;48.598;8.870;2023-03-12T04:00:58;3.00;99.90
23335;DHT22;11839;48.598;8.870;2023-03-12T04:03:25;3.00;99.90
23335;DHT22;11839;48.598;8.870;2023-03-12T04:05:53;3.20;99.90
23335;DHT22;11839;48.598;8.870;2023-03-12T04:08:20;3.30;99.90
23335;DHT22;11839;48.598;8.870;2023-03-12T04:10:48;3.40;99.90
23335;DHT22;11839;48.598;8.870;2023-03-12T04:13:15;3.50;99.90
23335;DHT22;11839;48.598;8.870;2023-03-12T04:15:46;3.60;99.90
23335;DHT22;11839;48.598;8.870;2023-03-12T04:18:12;3.80;99.90
23335;DHT22;11839;48.598;8.870;2023-03-12T04:20:39;3.80;99.90
23335;DHT22;11839;48.598;8.870;2023-03-12T04:23:06;3.60;99.90
23335;DHT22;11839;48.598;8.870;2023-03-12T04:25:33;3.30;99.90
23335;DHT22;11839;48.598;8.870;2023-03-12T04:28:01;3.20;99.90
23335;DHT22;11839;48.598;8.870;2023-03-12T04:30:28;3.00;99.90
23335;DHT22;11839;48.598;8.870;2023-03-12T04:32:55;3.20;99.90
23335;DHT22;11839;48.598;8.870;2023-03-12T04:35:21;3.50;99.90
23335;DHT22;11839;48.598;8.870;2023-03-12T04:37:49;3.30;99.90
23335;DHT22;11839;48.598;8.870;2023-03-12T04:40:16;3.30;99.90
23335;DHT22;11839;48.598;8.870;2023-03-12T04:42:44;3.20;99.90
23335;DHT22;11839;48.598;8.870;2023-03-12T04:45:13;3.30;99.90
23335;DHT22;11839;48.598;8.870;2023-03-12T04:47:40;3.40;99.90
23335;DHT22;11839;48.598;8.870;2023-03-12T04:50:09;3.70;99.90
23335;DHT22;11839;48.598;8.870;2023-03-12T04:52:36;3.60;99.90
23335;DHT22;11839;48.598;8.870;2023-03-12T04:55:04;3.70;99.90
23335;DHT22;11839;48.598;8.870;2023-03-12T04:57:31;3.70;99.90
23335;DHT22;11839;48.598;8.870;2023-03-12T04:59:58;3.60;99.90
23335;DHT22;11839;48.598;8.870;2023-03-12T05:02:26;3.50;99.90
23335;DHT22;11839;48.598;8.870;2023-03-12T05:04:55;3.70;99.90
23335;DHT22;11839;48.598;8.870;2023-03-12T05:07:21;3.60;99.90
23335;DHT22;11839;48.598;8.870;2023-03-12T05:09:48;3.70;99.90
23335;DHT22;11839;48.598;8.870;2023-03-12T05:12:15;3.80;99.90
23335;DHT22;11839;48.598;8.870;2023-03-12T05:14:41;3.70;99.90
23335;DHT22;11839;48.598;8.870;2023-03-12T05:17:08;3.90;99.90
23335;DHT22;11839;48.598;8.870;2023-03-12T05:19:36;3.40;99.90
23335;DHT22;11839;48.598;8.870;2023-03-12T05:22:03;3.30;99.90
23335;DHT22;11839;48.598;8.870;2023-03-12T05:24:30;3.60;99.90
23335;DHT22;11839;48.598;8.870;2023-03-12T05:26:57;3.70;99.90
23335;DHT22;11839;48.598;8.870;2023-03-12T05:29:23;3.70;99.90
23335;DHT22;11839;48.598;8.870;2023-03-12T05:31:50;3.80;99.90
23335;DHT22;11839;48.598;8.870;2023-03-12T05:34:17;4.00;99.90
23335;DHT22;11839;48.598;8.870;2023-03-12T05:36:45;3.40;99.90
23335;DHT22;11839;48.598;8.870;2023-03-12T05:39:12;3.50;99.90
23335;DHT22;11839;48.598;8.870;2023-03-12T05:41:38;4.00;99.90
23335;DHT22;11839;48.598;8.870;2023-03-12T05:44:05;4.10;99.90
23335;DHT22;11839;48.598;8.870;2023-03-12T05:46:32;4.10;99.90
23335;DHT22;11839;48.598;8.870;2023-03-12T05:48:59;4.30;99.90
23335;DHT22;11839;48.598;8.870;2023-03-12T05:51:25;4.60;99.90
23335;DHT22;11839;48.598;8.870;2023-03-12T05:53:53;4.90;99.90
23335;DHT22;11839;48.598;8.870;2023-03-12T05:56:20;4.90;99.50
23335;DHT22;11839;48.598;8.870;2023-03-12T05:58:48;4.60;99.70
23335;DHT22;11839;48.598;8.870;2023-03-12T06:01:18;4.70;99.90
23335;DHT22;11839;48.598;8.870;2023-03-12T06:03:45;4.90;99.80
23335;DHT22;11839;48.598;8.870;2023-03-12T06:06:12;5.10;99.90
23335;DHT22;11839;48.598;8.870;2023-03-12T06:08:40;4.80;99.80
23335;DHT22;11839;48.598;8.870;2023-03-12T06:11:09;4.80;99.90
23335;DHT22;11839;48.598;8.870;2023-03-12T06:13:36;4.90;99.90
23335;DHT22;11839;48.598;8.870;2023-03-12T06:16:04;4.70;99.90
23335;DHT22;11839;48.598;8.870;2023-03-12T06:18:32;4.60;99.90
23335;DHT22;11839;48.598;8.870;2023-03-12T06:21:10;4.40;99.90
23335;DHT22;11839;48.598;8.870;2023-03-12T06:23:37;4.30;99.90
23335;DHT22;11839;48.598;8.870;2023-03-12T06:26:05;4.60;99.90
23335;DHT22;11839;48.598;8.870;2023-03-12T06:28:34;4.80;99.90
23335;DHT22;11839;48.598;8.870;2023-03-12T06:31:01;4.80;99.90
23335;DHT22;11839;48.598;8.870;2023-03-12T06:33:28;4.70;99.90
23335;DHT22;11839;48.598;8.870;2023-03-12T06:35:55;4.50;99.90
23335;DHT22;11839;48.598;8.870;2023-03-12T06:38:23;4.30;99.90
23335;DHT22;11839;48.598;8.870;2023-03-12T06:40:54;4.30;99.90
23335;DHT22;11839;48.598;8.870;2023-03-12T06:43:21;4.10;99.90
23335;DHT22;11839;48.598;8.870;2023-03-12T06:45:49;3.90;99.90
23335;DHT22;11839;48.598;8.870;2023-03-12T06:48:16;3.80;99.90
23335;DHT22;11839;48.598;8.870;2023-03-12T06:50:43;3.80;99.90
23335;DHT22;11839;48.598;8.870;2023-03-12T06:53:10;3.70;99.90
23335;DHT22;11839;48.598;8.870;2023-03-12T06:55:37;3.70;99.90
23335;DHT22;11839;48.598;8.870;2023-03-12T06:58:04;3.70;99.90
23335;DHT22;11839;48.598;8.870;2023-03-12T07:00:31;3.50;99.90
23335;DHT22;11839;48.598;8.870;2023-03-12T07:03:00;3.60;99.90
23335;DHT22;11839;48.598;8.870;2023-03-12T07:05:27;3.70;99.90
23335;DHT22;11839;48.598;8.870;2023-03-12T07:07:54;3.70;99.90
23335;DHT22;11839;48.598;8.870;2023-03-12T07:10:21;3.70;99.90
23335;DHT22;11839;48.598;8.870;2023-03-12T07:12:48;3.90;99.90
23335;DHT22;11839;48.598;8.870;2023-03-12T07:15:16;3.70;99.90
23335;DHT22;11839;48.598;8.870;2023-03-12T07:17:43;3.60;99.90
23335;DHT22;11839;48.598;8.870;2023-03-12T07:20:11;3.60;99.90
23335;DHT22;11839;48.598;8.870;2023-03-12T07:22:38;3.80;99.90
23335;DHT22;11839;48.598;8.870;2023-03-12T07:25:05;3.70;99.90
23335;DHT22;11839;48.598;8.870;2023-03-12T07:27:32;3.70;99.90
23335;DHT22;11839;48.598;8.870;2023-03-12T07:29:59;3.90;99.90
23335;DHT22;11839;48.598;8.870;2023-03-12T07:32:26;3.90;99.90
23335;DHT22;11839;48.598;8.870;2023-03-12T07:34:53;3.90;99.90
23335;DHT22;11839;48.598;8.870;2023-03-12T07:37:21;3.90;99.90
23335;DHT22;11839;48.598;8.870;2023-03-12T07:39:48;3.90;99.90
23335;DHT22;11839;48.598;8.870;2023-03-12T07:42:18;3.80;99.90
23335;DHT22;11839;48.598;8.870;2023-03-12T07:44:45;4.00;99.90
23335;DHT22;11839;48.598;8.870;2023-03-12T07:47:12;4.10;99.90
23335;DHT22;11839;48.598;8.870;2023-03-12T07:49:39;3.90;99.90
23335;DHT22;11839;48.598;8.870;2023-03-12T07:52:06;3.90;99.90
23335;DHT22;11839;48.598;8.870;2023-03-12T07:54:37;4.10;99.90
23335;DHT22;11839;48.598;8.870;2023-03-12T07:57:04;4.10;99.90
23335;DHT22;11839;48.598;8.870;2023-03-12T07:59:31;4.00;99.90
23335;DHT22;11839;48.598;8.870;2023-03-12T08:01:58;3.90;99.90
23335;DHT22;11839;48.598;8.870;2023-03-12T08:04:25;4.10;99.90
23335;DHT22;11839;48.598;8.870;2023-03-12T08:06:52;4.30;99.90
23335;DHT22;11839;48.598;8.870;2023-03-12T08:09:18;4.30;99.90
23335;DHT22;11839;48.598;8.870;2023-03-12T08:11:47;4.60;99.90
23335;DHT22;11839;48.598;8.870;2023-03-12T08:14:13;4.70;99.90
23335;DHT22;11839;48.598;8.870;2023-03-12T08:16:40;4.80;99.90
23335;DHT22;11839;48.598;8.870;2023-03-12T08:19:07;4.60;99.90
23335;DHT22;11839;48.598;8.870;2023-03-12T08:21:34;4.60;99.90
23335;DHT22;11839;48.598;8.870;2023-03-12T08:24:01;4.90;99.90
23335;DHT22;11839;48.598;8.870;2023-03-12T08:26:27;5.00;99.90
23335;DHT22;11839;48.598;8.870;2023-03-12T08:28:55;5.50;99.90
23335;DHT22;11839;48.598;8.870;2023-03-12T08:31:24;5.30;99.90
23335;DHT22;11839;48.598;8.870;2023-03-12T08:33:51;5.70;99.90
23335;DHT22;11839;48.598;8.870;2023-03-12T08:36:18;5.50;99.90
23335;DHT22;11839;48.598;8.870;2023-03-12T08:38:45;5.60;99.90
23335;DHT22;11839;48.598;8.870;2023-03-12T08:41:11;6.10;99.90
23335;DHT22;11839;48.598;8.870;2023-03-12T08:43:38;6.50;99.90
23335;DHT22;11839;48.598;8.870;2023-03-12T08:46:06;6.20;99.90
23335;DHT22;11839;48.598;8.870;2023-03-12T08:48:33;5.80;99.90
23335;DHT22;11839;48.598;8.870;2023-03-12T08:51:01;5.60;99.90
23335;DHT22;11839;48.598;8.870;2023-03-12T08:53:32;5.60;99.90
23335;DHT22;11839;48.598;8.870;2023-03-12T08:55:59;5.60;99.90
23335;DHT22;11839;48.598;8.870;2023-03-12T08:58:26;6.00;99.90
23335;DHT22;11839;48.598;8.870;2023-03-12T09:00:54;6.20;99.90
23335;DHT22;11839;48.598;8.870;2023-03-12T09:03:23;6.70;99.90
23335;DHT22;11839;48.598;8.870;2023-03-12T09:05:50;6.70;99.90
23335;DHT22;11839;48.598;8.870;2023-03-12T09:08:28;6.70;99.90
23335;DHT22;11839;48.598;8.870;2023-03-12T09:10:55;6.50;99.90
23335;DHT22;11839;48.598;8.870;2023-03-12T09:13:21;6.60;99.90
23335;DHT22;11839;48.598;8.870;2023-03-12T09:15:48;6.50;99.90
23335;DHT22;11839;48.598;8.870;2023-03-12T09:18:15;6.60;99.90
23335;DHT22;11839;48.598;8.870;2023-03-12T09:20:45;6.60;99.90
23335;DHT22;11839;48.598;8.870;2023-03-12T09:23:12;6.70;99.90
23335;DHT22;11839;48.598;8.870;2023-03-12T09:25:39;6.40;99.90
23335;DHT22;11839;48.598;8.870;2023-03-12T09:28:07;6.60;99.90
23335;DHT22;11839;48.598;8.870;2023-03-12T09:30:34;6.60;99.90
23335;DHT22;11839;48.598;8.870;2023-03-12T09:33:00;6.80;99.90
23335;DHT22;11839;48.598;8.870;2023-03-12T09:35:27;7.10;99.90
23335;DHT22;11839;48.598;8.870;2023-03-12T09:37:57;7.60;99.90
23335;DHT22;11839;48.598;8.870;2023-03-12T09:40:26;8.00;99.90
23335;DHT22;11839;48.598;8.870;2023-03-12T09:42:57;7.70;99.90
23335;DHT22;11839;48.598;8.870;2023-03-12T09:45:25;8.10;99.90
23335;DHT22;11839;48.598;8.870;2023-03-12T09:47:55;8.40;99.90
23335;DHT22;11839;48.598;8.870;2023-03-12T09:50:27;8.50;99.90
23335;DHT22;11839;48.598;8.870;2023-03-12T09:52:59;8.70;99.90
23335;DHT22;11839;48.598;8.870;2023-03-12T09:55:33;8.50;99.90
23335;DHT22;11839;48.598;8.870;2023-03-12T09:58:01;9.10;99.90
23335;DHT22;11839;48.598;8.870;2023-03-12T10:00:30;9.10;99.90
23335;DHT22;11839;48.598;8.870;2023-03-12T10:06:01;9.90;99.90
23335;DHT22;11839;48.598;8.870;2023-03-12T10:08:44;10.10;99.90
23335;DHT22;11839;48.598;8.870;2023-03-12T10:11:22;10.80;99.90
23335;DHT22;11839;48.598;8.870;2023-03-12T10:14:02;11.20;99.90
23335;DHT22;11839;48.598;8.870;2023-03-12T10:16:43;11.40;99.90
23335;DHT22;11839;48.598;8.870;2023-03-12T10:19:23;11.80;99.90
23335;DHT22;11839;48.598;8.870;2023-03-12T10:21:56;12.20;99.90
23335;DHT22;11839;48.598;8.870;2023-03-12T10:24:35;12.10;99.90
23335;DHT22;11839;48.598;8.870;2023-03-12T10:27:11;12.30;99.90
23335;DHT22;11839;48.598;8.870;2023-03-12T10:29:41;12.20;99.90
23335;DHT22;11839;48.598;8.870;2023-03-12T10:32:13;12.60;99.90
23335;DHT22;11839;48.598;8.870;2023-03-12T10:34:44;12.50;99.90
23335;DHT22;11839;48.598;8.870;2023-03-12T10:37:16;12.30;99.90
23335;DHT22;11839;48.598;8.870;2023-03-12T10:39:46;12.30;99.90
23335;DHT22;11839;48.598;8.870;2023-03-12T10:42:16;12.10;99.90
23335;DHT22;11839;48.598;8.870;2023-03-12T10:44:44;11.90;99.90
23335;DHT22;11839;48.598;8.870;2023-03-12T10:47:29;11.80;99.90
23335;DHT22;11839;48.598;8.870;2023-03-12T10:50:11;11.90;99.90
23335;DHT22;11839;48.598;8.870;2023-03-12T10:52:38;12.10;99.90
23335;DHT22;11839;48.598;8.870;2023-03-12T10:55:15;11.90;99.90
23335;DHT22;11839;48.598;8.870;2023-03-12T10:57:45;11.90;99.90
23335;DHT22;11839;48.598;8.870;2023-03-12T11:00:18;12.20;99.90
23335;DHT22;11839;48.598;8.870;2023-03-12T11:02:45;12.20;99.90
23335;DHT22;11839;48.598;8.870;2023-03-12T11:05:20;12.50;99.90
23335;DHT22;11839;48.598;8.870;2023-03-12T11:07:48;12.50;99.90
23335;DHT22;11839;48.598;8.870;2023-03-12T11:10:20;12.30;99.90
23335;DHT22;11839;48.598;8.870;2023-03-12T11:13:00;12.50;99.90
23335;DHT22;11839;48.598;8.870;2023-03-12T11:15:29;12.70;99.90
23335;DHT22;11839;48.598;8.870;2023-03-12T11:18:20;12.90;99.90
23335;DHT22;11839;48.598;8.870;2023-03-12T11:20:50;13.00;99.90
23335;DHT22;11839;48.598;8.870;2023-03-12T11:23:21;13.30;99.90
23335;DHT22;11839;48.598;8.870;2023-03-12T11:25:54;12.90;99.90
23335;DHT22;11839;48.598;8.870;2023-03-12T11:28:24;12.70;99.90
23335;DHT22;11839;48.598;8.870;2023-03-12T11:30:53;12.90;99.90
23335;DHT22;11839;48.598;8.870;2023-03-12T11:33:22;13.50;99.90
23335;DHT22;11839;48.598;8.870;2023-03-12T11:35:59;13.60;99.90
23335;DHT22;11839;48.598;8.870;2023-03-12T11:38:32;13.20;99.90
23335;DHT22;11839;48.598;8.870;2023-03-12T11:41:12;13.00;99.90
23335;DHT22;11839;48.598;8.870;2023-03-12T11:43:55;13.30;99.90
23335;DHT22;11839;48.598;8.870;2023-03-12T11:46:35;13.40;99.90
23335;DHT22;11839;48.598;8.870;2023-03-12T11:49:17;13.60;99.90
23335;DHT22;11839;48.598;8.870;2023-03-12T11:51:52;13.80;99.90
23335;DHT22;11839;48.598;8.870;2023-03-12T11:54:46;14.00;99.90
23335;DHT22;11839;48.598;8.870;2023-03-12T11:57:21;14.10;99.90
23335;DHT22;11839;48.598;8.870;2023-03-12T11:59:58;14.20;99.90
23335;DHT22;11839;48.598;8.870;2023-03-12T12:03:01;14.40;99.90
23335;DHT22;11839;48.598;8.870;2023-03-12T12:05:39;14.30;99.90
23335;DHT22;11839;48.598;8.870;2023-03-12T12:08:37;14.20;99.90
23335;DHT22;11839;48.598;8.870;2023-03-12T12:11:10;14.20;99.90
23335;DHT22;11839;48.598;8.870;2023-03-12T12:13:51;14.00;99.90
23335;DHT22;11839;48.598;8.870;2023-03-12T12:16:35;13.90;99.90
23335;DHT22;11839;48.598;8.870;2023-03-12T12:19:13;14.10;99.90
23335;DHT22;11839;48.598;8.870;2023-03-12T12:21:54;14.20;99.90
23335;DHT22;11839;48.598;8.870;2023-03-12T12:24:36;14.10;99.90
23335;DHT22;11839;48.598;8.870;2023-03-12T12:27:11;14.00;99.90
23335;DHT22;11839;48.598;8.870;2023-03-12T12:32:38;14.30;99.90
23335;DHT22;11839;48.598;8.870;2023-03-12T12:35:21;14.70;99.90
23335;DHT22;11839;48.598;8.870;2023-03-12T12:38:33;14.00;99.90
23335;DHT22;11839;48.598;8.870;2023-03-12T12:41:07;13.80;99.90
23335;DHT22;11839;48.598;8.870;2023-03-12T12:43:37;13.50;99.90
23335;DHT22;11839;48.598;8.870;2023-03-12T12:46:08;14.10;99.90
23335;DHT22;11839;48.598;8.870;2023-03-12T12:48:39;14.40;99.90
23335;DHT22;11839;48.598;8.870;2023-03-12T12:51:07;14.40;99.90
23335;DHT22;11839;48.598;8.870;2023-03-12T12:53:42;14.50;99.90
23335;DHT22;11839;48.598;8.870;2023-03-12T12:56:16;14.60;99.90
23335;DHT22;11839;48.598;8.870;2023-03-12T12:58:56;14.00;99.90
23335;DHT22;11839;48.598;8.870;2023-03-12T13:01:25;14.10;99.90
23335;DHT22;11839;48.598;8.870;2023-03-12T13:03:56;13.40;99.90
23335;DHT22;11839;48.598;8.870;2023-03-12T13:06:27;13.60;99.90
23335;DHT22;11839;48.598;8.870;2023-03-12T13:09:01;13.80;99.90
23335;DHT22;11839;48.598;8.870;2023-03-12T13:11:42;13.50;99.90
23335;DHT22;11839;48.598;8.870;2023-03-12T13:14:14;13.30;99.90
23335;DHT22;11839;48.598;8.870;2023-03-12T13:16:42;13.00;99.90
23335;DHT22;11839;48.598;8.870;2023-03-12T13:19:23;12.90;99.90
23335;DHT22;11839;48.598;8.870;2023-03-12T13:21:59;12.70;99.90
23335;DHT22;11839;48.598;8.870;2023-03-12T13:24:33;13.00;99.90
23335;DHT22;11839;48.598;8.870;2023-03-12T13:27:07;13.10;99.90
23335;DHT22;11839;48.598;8.870;2023-03-12T13:29:39;13.20;99.90
23335;DHT22;11839;48.598;8.870;2023-03-12T13:33:02;13.10;99.90
23335;DHT22;11839;48.598;8.870;2023-03-12T13:35:33;12.90;99.90
23335;DHT22;11839;48.598;8.870;2023-03-12T13:38:06;12.40;99.90
23335;DHT22;11839;48.598;8.870;2023-03-12T13:40:54;12.50;99.90
23335;DHT22;11839;48.598;8.870;2023-03-12T13:43:49;13.20;99.90
23335;DHT22;11839;48.598;8.870;2023-03-12T13:46:35;13.30;99.90
23335;DHT22;11839;48.598;8.870;2023-03-12T13:49:09;13.50;99.90
23335;DHT22;11839;48.598;8.870;2023-03-12T13:51:43;13.50;99.90
23335;DHT22;11839;48.598;8.870;2023-03-12T13:54:15;13.70;99.90
23335;DHT22;11839;48.598;8.870;2023-03-12T13:56:54;14.10;99.90
23335;DHT22;11839;48.598;8.870;2023-03-12T13:59:23;13.80;99.90
23335;DHT22;11839;48.598;8.870;2023-03-12T14:01:55;13.70;99.90
23335;DHT22;11839;48.598;8.870;2023-03-12T14:04:24;14.20;99.90
23335;DHT22;11839;48.598;8.870;2023-03-12T14:09:45;13.80;99.90
23335;DHT22;11839;48.598;8.870;2023-03-12T14:12:24;13.70;99.90
23335;DHT22;11839;48.598;8.870;2023-03-12T14:15:17;14.00;99.90
23335;DHT22;11839;48.598;8.870;2023-03-12T14:17:54;13.80;99.90
23335;DHT22;11839;48.598;8.870;2023-03-12T14:20:22;14.00;99.90
23335;DHT22;11839;48.598;8.870;2023-03-12T14:22:50;13.80;99.90
23335;DHT22;11839;48.598;8.870;2023-03-12T14:25:25;13.80;99.90
23335;DHT22;11839;48.598;8.870;2023-03-12T14:27:56;13.80;99.90
23335;DHT22;11839;48.598;8.870;2023-03-12T14:30:27;13.90;99.90
23335;DHT22;11839;48.598;8.870;2023-03-12T14:32:57;13.80;99.90
23335;DHT22;11839;48.598;8.870;2023-03-12T14:35:27;14.20;99.90
23335;DHT22;11839;48.598;8.870;2023-03-12T14:37:58;14.10;99.90
23335;DHT22;11839;48.598;8.870;2023-03-12T14:40:37;14.20;99.90
23335;DHT22;11839;48.598;8.870;2023-03-12T14:43:26;14.50;99.90
23335;DHT22;11839;48.598;8.870;2023-03-12T14:45:54;15.50;99.80
23335;DHT22;11839;48.598;8.870;2023-03-12T14:48:22;16.10;98.50
23335;DHT22;11839;48.598;8.870;2023-03-12T14:50:49;15.40;98.00
23335;DHT22;11839;48.598;8.870;2023-03-12T14:53:19;14.90;98.70
23335;DHT22;11839;48.598;8.870;2023-03-12T14:56:01;14.60;98.10
23335;DHT22;11839;48.598;8.870;2023-03-12T14:58:31;14.70;98.90
23335;DHT22;11839;48.598;8.870;2023-03-12T15:01:00;14.80;98.30
23335;DHT22;11839;48.598;8.870;2023-03-12T15:03:28;14.70;98.70
23335;DHT22;11839;48.598;8.870;2023-03-12T15:05:56;14.70;98.50
23335;DHT22;11839;48.598;8.870;2023-03-12T15:08:24;14.70;98.40
23335;DHT22;11839;48.598;8.870;2023-03-12T15:10:53;14.90;97.90
23335;DHT22;11839;48.598;8.870;2023-03-12T15:13:21;15.00;98.30
23335;DHT22;11839;48.598;8.870;2023-03-12T15:15:52;15.00;98.30
23335;DHT22;11839;48.598;8.870;2023-03-12T15:18:23;14.90;97.70
23335;DHT22;11839;48.598;8.870;2023-03-12T15:20:51;15.00;98.00
23335;DHT22;11839;48.598;8.870;2023-03-12T15:23:20;14.70;97.80
23335;DHT22;11839;48.598;8.870;2023-03-12T15:25:47;14.90;98.00
23335;DHT22;11839;48.598;8.870;2023-03-12T15:28:33;14.80;98.00
23335;DHT22;11839;48.598;8.870;2023-03-12T15:31:07;14.60;97.90
23335;DHT22;11839;48.598;8.870;2023-03-12T15:33:34;14.50;98.50
23335;DHT22;11839;48.598;8.870;2023-03-12T15:36:04;14.20;99.00
23335;DHT22;11839;48.598;8.870;2023-03-12T15:38:33;14.20;99.30
23335;DHT22;11839;48.598;8.870;2023-03-12T15:41:07;14.30;99.20
23335;DHT22;11839;48.598;8.870;2023-03-12T15:43:34;14.20;99.10
23335;DHT22;11839;48.598;8.870;2023-03-12T15:46:04;14.30;98.80
23335;DHT22;11839;48.598;8.870;2023-03-12T15:48:34;14.40;98.80
23335;DHT22;11839;48.598;8.870;2023-03-12T15:51:11;14.50;99.20
23335;DHT22;11839;48.598;8.870;2023-03-12T15:53:38;14.30;99.10
23335;DHT22;11839;48.598;8.870;2023-03-12T15:56:19;14.10;99.10
23335;DHT22;11839;48.598;8.870;2023-03-12T15:58:51;14.10;99.40
23335;DHT22;11839;48.598;8.870;2023-03-12T16:01:25;14.10;99.20
23335;DHT22;11839;48.598;8.870;2023-03-12T16:03:53;14.10;99.10
23335;DHT22;11839;48.598;8.870;2023-03-12T16:06:24;14.10;99.20
23335;DHT22;11839;48.598;8.870;2023-03-12T16:08:53;14.00;99.00